Terminal Aerodrome Forecast
Issued by NWS Dodge City, KS

Home | Current Version | Previous Version | Text Only | Print | Product List | Glossary On
Versions: 1 2 3 4 5 6 7 8 9 10 11 12 13 14 15 16 17 18 19 20 21 22 23 24
922
FTUS43 KDDC 082331
TAFDDC
TAF
KDDC 082331Z 0900/0924 34015G25KT P6SM FEW060 SCT250
     FM090100 32011KT P6SM SCT250
     FM091700 33014G24KT P6SM SCT110 SCT250=

USA.gov is the U.S. government's official web portal to all federal, state and local government web resources and services.